Time;durP1;ratioP1;P1;durP2;ratioP2;P2;SDS_P1;SDS_P2;PMS_P1;PMS_P2;Temp;Humidity;BMP_temperature;BMP_pressure;BME280_temperature;BME280_humidity;BME280_pressure;Samples;Min_cycle;Max_cycle;Signal;HPM_P1;HPM_P2
2022/06/28 00:00:16;;;;;;;4.05;1.95;;;;;;;19.31;100.00;98701.41;2637687;28;20122;-79
2022/06/28 00:01:52;;;;;;;3.85;2.05;;;;;;;19.37;100.00;98705.50;2637956;28;20035;-78
2022/06/28 00:03:07;;;;;;;3.03;2.10;;;;;;;19.38;100.00;98699.25;2637433;28;20072;-78
2022/06/28 00:04:24;;;;;;;2.72;1.98;;;;;;;19.35;100.00;98700.31;2637364;28;20047;-79
2022/06/28 00:05:40;;;;;;;3.63;1.92;;;;;;;19.34;100.00;98696.78;2637659;28;20269;-79
2022/06/28 00:06:57;;;;;;;2.97;2.08;;;;;;;19.39;100.00;98692.97;2637140;28;20057;-79
2022/06/28 00:08:12;;;;;;;3.60;1.80;;;;;;;19.36;100.00;98685.22;2637073;28;20043;-79
2022/06/28 00:09:31;;;;;;;2.88;1.98;;;;;;;19.38;100.00;98685.97;2637428;28;20048;-79
2022/06/28 00:10:54;;;;;;;2.30;1.73;;;;;;;19.36;100.00;98701.16;2637608;28;20138;-79
2022/06/28 00:12:09;;;;;;;2.30;1.70;;;;;;;19.43;100.00;98706.00;2637697;28;20077;-78
2022/06/28 00:13:25;;;;;;;2.38;1.73;;;;;;;19.41;100.00;98707.88;2637353;28;20044;-78
2022/06/28 00:16:16;;;;;;;2.38;1.67;;;;;;;19.48;100.00;98711.03;2633451;28;20559;-77
2022/06/28 00:17:32;;;;;;;2.55;1.70;;;;;;;19.51;100.00;98710.00;2637195;28;20043;-78
2022/06/28 00:18:49;;;;;;;2.42;1.65;;;;;;;19.49;100.00;98715.38;2637331;28;20107;-79
2022/06/28 00:20:05;;;;;;;2.35;1.75;;;;;;;19.51;100.00;98705.53;2637182;28;20044;-78
2022/06/28 00:21:21;;;;;;;3.97;1.70;;;;;;;19.52;100.00;98709.03;2637528;28;20055;-81
2022/06/28 00:22:36;;;;;;;1.90;1.70;;;;;;;19.48;100.00;98713.69;2637261;28;20055;-79
2022/06/28 00:23:52;;;;;;;5.30;2.10;;;;;;;19.49;100.00;98712.72;2637499;28;20067;-78
2022/06/28 00:25:08;;;;;;;4.00;2.10;;;;;;;19.47;100.00;98706.66;2637076;28;20048;-78
2022/06/28 00:26:24;;;;;;;3.42;1.90;;;;;;;19.45;100.00;98711.22;2637143;28;20838;-78
2022/06/28 00:27:39;;;;;;;2.47;1.90;;;;;;;19.47;100.00;98706.66;2636964;28;20066;-79
2022/06/28 00:28:55;;;;;;;3.03;1.77;;;;;;;19.45;100.00;98706.75;2636975;28;20043;-78
2022/06/28 00:30:11;;;;;;;3.58;1.92;;;;;;;19.43;100.00;98710.47;2637048;28;20139;-78
2022/06/28 00:31:27;;;;;;;5.00;1.95;;;;;;;19.42;100.00;98712.25;2636821;28;20497;-78
2022/06/28 00:32:42;;;;;;;2.55;1.80;;;;;;;19.43;100.00;98713.94;2637086;28;20096;-79
2022/06/28 00:33:58;;;;;;;3.33;1.90;;;;;;;19.43;100.00;98713.94;2637107;28;20446;-79
2022/06/28 00:35:14;;;;;;;4.03;1.73;;;;;;;19.43;100.00;98708.63;2637197;28;20074;-78
2022/06/28 00:36:30;;;;;;;5.35;2.25;;;;;;;19.43;100.00;98705.16;2636955;28;20577;-82
2022/06/28 00:37:46;;;;;;;2.53;1.92;;;;;;;19.42;100.00;98690.16;2636460;28;20123;-78
2022/06/28 00:39:02;;;;;;;2.20;2.00;;;;;;;19.39;100.00;98685.03;2636784;28;20051;-78
2022/06/28 00:40:18;;;;;;;2.13;1.80;;;;;;;19.34;100.00;98670.22;2637067;28;20048;-79
2022/06/28 00:41:34;;;;;;;3.13;2.30;;;;;;;19.30;100.00;98666.06;2637135;28;20062;-78
2022/06/28 00:42:51;;;;;;;29.90;2.72;;;;;;;19.28;100.00;98652.03;2637032;28;20551;-78
2022/06/28 00:44:06;;;;;;;3.05;2.30;;;;;;;19.33;100.00;98659.69;2636749;28;20058;-80
2022/06/28 00:45:22;;;;;;;4.43;2.50;;;;;;;19.39;100.00;98662.00;2637088;28;20558;-78
2022/06/28 00:46:38;;;;;;;3.47;2.35;;;;;;;19.38;100.00;98660.28;2637084;28;20543;-78
2022/06/28 00:47:55;;;;;;;2.38;1.90;;;;;;;19.42;100.00;98661.81;2637029;28;20128;-78
2022/06/28 00:49:12;;;;;;;4.57;2.20;;;;;;;19.45;100.00;98663.41;2636882;28;20558;-78
2022/06/28 00:50:32;;;;;;;4.35;2.03;;;;;;;19.40;100.00;98658.38;2636886;28;20043;-78
2022/06/28 00:51:48;;;;;;;2.40;1.95;;;;;;;19.38;100.00;98664.72;2636653;28;20047;-82
2022/06/28 00:53:09;;;;;;;3.17;2.05;;;;;;;19.37;100.00;98666.53;2637013;28;20048;-79
2022/06/28 00:54:25;;;;;;;2.83;2.00;;;;;;;19.38;100.00;98659.41;2636966;28;20093;-79
2022/06/28 00:55:44;;;;;;;2.20;1.70;;;;;;;19.46;100.00;98649.19;2637233;28;20048;-78
2022/06/28 00:57:00;;;;;;;3.08;2.08;;;;;;;19.43;100.00;98642.25;2637259;28;20482;-79
2022/06/28 00:58:16;;;;;;;2.60;1.85;;;;;;;19.45;100.00;98620.94;2637046;28;20130;-78
2022/06/28 00:59:32;;;;;;;4.07;1.90;;;;;;;19.34;100.00;98606.53;2637050;28;20055;-79
2022/06/28 01:00:49;;;;;;;5.22;2.33;;;;;;;19.34;100.00;98592.38;2637003;28;20071;-79
2022/06/28 01:02:05;;;;;;;3.15;2.00;;;;;;;19.32;100.00;98581.88;2625687;28;20048;-79
2022/06/28 01:03:23;;;;;;;4.65;2.20;;;;;;;19.32;100.00;98576.56;2630206;28;20339;-80
2022/06/28 01:04:38;;;;;;;1.90;1.60;;;;;;;19.31;100.00;98550.09;2636977;28;20047;-79
2022/06/28 01:05:54;;;;;;;2.83;1.77;;;;;;;19.22;100.00;98532.94;2637006;28;20052;-78
2022/06/28 01:07:10;;;;;;;1.77;1.55;;;;;;;19.13;100.00;98518.47;2637018;28;20490;-79
2022/06/28 01:08:26;;;;;;;2.38;1.90;;;;;;;19.09;100.00;98516.09;2636617;28;20057;-85
2022/06/28 01:09:41;;;;;;;2.47;2.00;;;;;;;19.08;100.00;98511.72;2637287;28;20048;-78
2022/06/28 01:10:57;;;;;;;2.70;1.88;;;;;;;19.15;100.00;98510.41;2636871;28;20051;-78
2022/06/28 01:12:12;;;;;;;4.05;2.05;;;;;;;19.32;100.00;98518.16;2637015;28;20047;-79
2022/06/28 01:13:28;;;;;;;2.85;1.80;;;;;;;19.30;100.00;98517.41;2637127;28;20490;-79
2022/06/28 01:14:43;;;;;;;3.45;1.63;;;;;;;19.33;100.00;98526.97;2637068;28;20051;-79
2022/06/28 01:16:00;;;;;;;4.43;1.83;;;;;;;19.38;100.00;98534.63;2636828;28;20056;-79
2022/06/28 01:17:16;;;;;;;3.13;1.73;;;;;;;19.36;100.00;98539.19;2636758;28;20073;-80
2022/06/28 01:18:31;;;;;;;3.63;1.75;;;;;;;19.34;100.00;98539.28;2636843;28;20355;-84
2022/06/28 01:19:47;;;;;;;2.72;1.90;;;;;;;19.27;100.00;98528.19;2639255;28;20047;-80
2022/06/28 01:21:03;;;;;;;4.25;2.00;;;;;;;19.21;100.00;98523.28;2638920;28;20047;-80
2022/06/28 01:22:19;;;;;;;2.67;1.60;;;;;;;19.18;100.00;98507.56;2639280;28;20047;-79
2022/06/28 01:23:35;;;;;;;2.47;1.70;;;;;;;19.12;100.00;98507.94;2639119;28;20662;-81
2022/06/28 01:24:51;;;;;;;2.22;1.45;;;;;;;19.24;100.00;98516.94;2638753;28;20055;-79
2022/06/28 01:26:07;;;;;;;2.08;1.52;;;;;;;19.26;100.00;98517.69;2638917;28;20564;-80
2022/06/28 01:27:22;;;;;;;1.73;1.50;;;;;;;19.26;100.00;98510.56;2638905;28;20112;-80
2022/06/28 01:28:38;;;;;;;2.00;1.80;;;;;;;19.25;100.00;98495.59;2639328;28;20047;-79
2022/06/28 01:29:54;;;;;;;3.92;1.77;;;;;;;19.26;100.00;98477.88;2639421;28;20166;-79
2022/06/28 01:31:10;;;;;;;2.20;1.60;;;;;;;19.24;100.00;98459.38;2639108;28;20066;-85
2022/06/28 01:32:26;;;;;;;3.28;1.60;;;;;;;19.31;100.00;98443.91;2638938;28;20096;-80
2022/06/28 01:33:42;;;;;;;3.38;1.58;;;;;;;19.27;100.00;98427.34;2639031;28;20522;-82
2022/06/28 01:34:59;;;;;;;1.67;1.35;;;;;;;19.23;100.00;98422.34;2639031;28;20048;-80
2022/06/28 01:36:15;;;;;;;3.83;1.35;;;;;;;19.19;100.00;98419.03;2638785;28;20055;-81
2022/06/28 01:37:31;;;;;;;2.78;1.45;;;;;;;19.24;100.00;98422.22;2638776;28;20051;-81
2022/06/28 01:38:47;;;;;;;3.75;1.50;;;;;;;19.23;100.00;98417.88;2638601;28;20760;-80
2022/06/28 01:40:04;;;;;;;1.83;1.40;;;;;;;19.24;100.00;98413.44;2638876;28;20100;-80
2022/06/28 01:41:32;;;;;;;2.80;1.55;;;;;;;19.22;100.00;98416.16;2621984;28;20048;-83
2022/06/28 01:42:47;;;;;;;2.70;1.50;;;;;;;19.23;100.00;98420.53;2631531;28;20497;-80
2022/06/28 01:44:07;;;;;;;2.95;1.60;;;;;;;19.20;100.00;98426.88;2638710;28;20047;-80
2022/06/28 01:45:23;;;;;;;1.85;1.40;;;;;;;19.24;100.00;98429.34;2639080;28;20074;-79
2022/06/28 01:46:39;;;;;;;1.40;1.30;;;;;;;19.29;100.00;98446.69;2638492;28;20066;-86
2022/06/28 01:47:55;;;;;;;2.05;1.40;;;;;;;19.40;100.00;98469.03;2638527;28;20071;-80
2022/06/28 01:49:11;;;;;;;2.28;1.35;;;;;;;19.44;100.00;98465.25;2638534;28;20047;-80
2022/06/28 01:50:26;;;;;;;2.70;1.15;;;;;;;19.40;100.00;98469.03;2638951;28;20044;-80
2022/06/28 01:51:43;;;;;;;2.13;1.27;;;;;;;19.42;100.00;98456.53;2639006;28;20122;-80
2022/06/28 01:52:58;;;;;;;2.75;1.40;;;;;;;19.43;100.00;98460.88;2638525;28;20545;-80
2022/06/28 01:54:16;;;;;;;1.83;1.40;;;;;;;19.45;100.00;98459.81;2639103;28;20047;-79
2022/06/28 01:55:32;;;;;;;1.40;1.30;;;;;;;19.41;100.00;98460.09;2639049;28;20047;-80
2022/06/28 01:56:48;;;;;;;3.90;1.50;;;;;;;19.46;100.00;98452.72;2638795;28;20410;-80
2022/06/28 01:58:04;;;;;;;2.35;1.40;;;;;;;19.44;100.00;98441.34;2638579;28;20246;-82
2022/06/28 01:59:19;;;;;;;2.78;1.50;;;;;;;19.37;100.00;98440.88;2638809;28;20070;-80
2022/06/28 02:00:35;;;;;;;3.47;1.60;;;;;;;19.42;100.00;98445.91;2638494;28;20048;-83
2022/06/28 02:01:51;;;;;;;3.88;1.40;;;;;;;19.41;100.00;98460.09;2638940;28;20043;-80
2022/06/28 02:03:07;;;;;;;2.90;1.88;;;;;;;19.30;100.00;98474.06;2638589;28;20148;-81
2022/06/28 02:04:24;;;;;;;5.28;1.85;;;;;;;19.14;100.00;98484.81;2638680;28;20520;-81
2022/06/28 02:05:40;;;;;;;2.20;1.98;;;;;;;19.13;100.00;98473.34;2638702;28;20051;-80
2022/06/28 02:06:57;;;;;;;2.10;1.90;;;;;;;19.14;100.00;98464.44;2638686;28;20047;-81
2022/06/28 02:08:12;;;;;;;3.67;1.90;;;;;;;19.18;100.00;98465.09;2638414;28;20051;-82
2022/06/28 02:09:28;;;;;;;2.92;1.67;;;;;;;19.11;100.00;98479.69;2638666;28;20052;-81
2022/06/28 02:10:44;;;;;;;2.13;1.92;;;;;;;19.11;100.00;98480.56;2638509;28;20123;-80
2022/06/28 02:12:00;;;;;;;3.38;1.88;;;;;;;19.18;100.00;98475.72;2638774;28;20051;-80
2022/06/28 02:13:15;;;;;;;2.72;1.85;;;;;;;19.26;100.00;98461.97;2638587;28;20052;-80
2022/06/28 02:14:31;;;;;;;1.90;1.70;;;;;;;19.19;100.00;98466.81;2638766;28;20054;-81
2022/06/28 02:15:46;;;;;;;4.10;1.85;;;;;;;19.17;100.00;98474.00;2638537;28;20104;-80
2022/06/28 02:17:02;;;;;;;1.80;1.70;;;;;;;19.18;100.00;98481.03;2638464;28;20114;-80
2022/06/28 02:18:18;;;;;;;2.70;1.77;;;;;;;19.16;100.00;98475.78;2638469;28;20074;-80
2022/06/28 02:19:33;;;;;;;2.10;1.38;;;;;;;19.18;100.00;98465.94;2638704;28;20050;-80
2022/06/28 02:20:49;;;;;;;2.58;1.70;;;;;;;19.19;100.00;98464.16;2638750;28;20505;-81
2022/06/28 02:22:05;;;;;;;3.42;1.77;;;;;;;19.21;100.00;98470.22;2638497;28;20643;-85
2022/06/28 02:23:20;;;;;;;2.67;1.42;;;;;;;19.24;100.00;98474.47;2638804;28;20051;-81
2022/06/28 02:24:36;;;;;;;2.53;1.58;;;;;;;19.26;100.00;98478.72;2638555;28;20515;-81
2022/06/28 02:25:51;;;;;;;2.38;1.50;;;;;;;19.28;100.00;98500.72;2638786;28;20048;-81
2022/06/28 02:27:07;;;;;;;2.42;1.55;;;;;;;19.24;100.00;98501.84;2638379;28;20042;-80
2022/06/28 02:28:23;;;;;;;1.90;1.70;;;;;;;19.26;100.00;98499.94;2638243;28;20073;-81
2022/06/28 02:29:38;;;;;;;1.90;1.60;;;;;;;19.28;100.00;98497.22;2638172;28;20055;-81
2022/06/28 02:30:54;;;;;;;1.55;1.45;;;;;;;19.25;100.00;98498.25;2638538;28;20055;-81
2022/06/28 02:32:09;;;;;;;1.75;1.20;;;;;;;19.26;100.00;98507.06;2638656;28;20078;-82
2022/06/28 02:33:25;;;;;;;2.28;1.50;;;;;;;19.26;100.00;98513.22;2638465;28;20051;-80
2022/06/28 02:40:39;;;;;;;1.60;1.50;;;;;;;19.14;100.00;98545.88;2638641;28;20496;-81
2022/06/28 02:41:55;;;;;;;2.15;1.60;;;;;;;19.16;100.00;98549.28;2638341;28;20040;-81
2022/06/28 02:43:11;;;;;;;1.85;1.63;;;;;;;19.15;100.00;98556.38;2638222;28;20066;-81
2022/06/28 02:44:27;;;;;;;2.40;1.88;;;;;;;19.22;100.00;98556.84;2638641;28;20442;-83
2022/06/28 02:45:42;;;;;;;2.03;1.60;;;;;;;19.23;100.00;98561.19;2638331;28;20497;-82
2022/06/28 02:46:58;;;;;;;1.90;1.70;;;;;;;19.20;100.00;98570.19;2638334;28;20149;-82
2022/06/28 02:48:14;;;;;;;3.13;1.77;;;;;;;19.19;100.00;98567.66;2638249;28;20894;-81
2022/06/28 02:49:29;;;;;;;2.83;1.70;;;;;;;19.23;100.00;98568.31;2638199;28;20101;-81
2022/06/28 02:50:45;;;;;;;2.58;1.90;;;;;;;19.23;100.00;98577.13;2638266;28;20043;-81
2022/06/28 02:52:00;;;;;;;1.85;1.60;;;;;;;19.17;100.00;98578.34;2638258;28;20051;-81
2022/06/28 02:53:16;;;;;;;3.55;1.85;;;;;;;19.22;100.00;98583.38;2638080;28;20402;-81
2022/06/28 02:54:32;;;;;;;2.00;1.80;;;;;;;19.30;100.00;98581.13;2638062;28;20573;-82
2022/06/28 02:55:47;;;;;;;2.92;1.83;;;;;;;19.21;100.00;98576.38;2637897;28;20677;-83
2022/06/28 02:57:03;;;;;;;2.88;2.25;;;;;;;19.12;100.00;98583.09;2637639;28;20047;-83
2022/06/28 02:58:19;;;;;;;3.50;2.05;;;;;;;19.19;100.00;98581.75;2638032;28;20074;-82
2022/06/28 02:59:34;;;;;;;2.25;2.00;;;;;;;19.19;100.00;98576.44;2638162;28;20069;-82
2022/06/28 03:00:50;;;;;;;3.70;2.33;;;;;;;19.22;100.00;98577.22;2637859;28;20043;-81
2022/06/28 03:02:05;;;;;;;3.38;2.00;;;;;;;19.18;100.00;98581.88;2638496;28;20096;-82
2022/06/28 03:03:21;;;;;;;3.88;2.00;;;;;;;19.16;100.00;98583.78;2638169;28;20596;-84
2022/06/28 03:04:37;;;;;;;2.85;1.85;;;;;;;19.18;100.00;98577.41;2638218;28;20054;-82
2022/06/28 03:05:52;;;;;;;3.63;1.90;;;;;;;19.20;100.00;98587.94;2638568;28;20044;-83
2022/06/28 03:07:08;;;;;;;2.38;2.00;;;;;;;19.22;100.00;98590.50;2638063;28;20048;-82
2022/06/28 03:08:24;;;;;;;4.50;1.98;;;;;;;19.14;100.00;98591.81;2638150;28;20154;-82
2022/06/28 03:09:39;;;;;;;2.88;2.13;;;;;;;19.17;100.00;98593.44;2638215;28;20061;-82
2022/06/28 03:10:55;;;;;;;3.10;2.20;;;;;;;19.12;100.00;98590.19;2638146;28;20062;-82
2022/06/28 03:12:10;;;;;;;2.60;1.95;;;;;;;19.15;100.00;98590.88;2638104;28;20048;-83
2022/06/28 03:13:27;;;;;;;2.13;1.63;;;;;;;19.17;100.00;98593.44;2638131;28;20047;-82
2022/06/28 03:14:42;;;;;;;3.17;2.17;;;;;;;19.13;100.00;98594.56;2638069;28;20078;-84
2022/06/28 03:15:57;;;;;;;2.17;1.75;;;;;;;19.17;100.00;98598.75;2626546;28;20048;-82
2022/06/28 03:17:13;;;;;;;3.70;2.20;;;;;;;19.18;100.00;98603.94;2631075;28;20040;-83
2022/06/28 03:18:29;;;;;;;3.28;2.33;;;;;;;19.16;100.00;98597.03;2637967;28;20085;-86
2022/06/28 03:19:45;;;;;;;6.25;2.00;;;;;;;19.17;100.00;98601.41;2638048;28;20093;-83
2022/06/28 03:21:00;;;;;;;5.05;2.40;;;;;;;19.12;100.00;98606.97;2638289;28;20048;-83
2022/06/28 03:22:16;;;;;;;4.03;2.80;;;;;;;19.12;100.00;98603.47;2637809;28;20048;-82
2022/06/28 03:23:32;;;;;;;3.92;2.10;;;;;;;19.05;100.00;98602.97;2637937;28;20122;-82
2022/06/28 03:24:48;;;;;;;3.90;2.40;;;;;;;19.04;100.00;98599.50;2637543;28;20131;-85
2022/06/28 03:26:03;;;;;;;3.78;2.08;;;;;;;18.99;100.00;98603.31;2638186;28;20577;-83
2022/06/28 03:27:18;;;;;;;4.68;2.08;;;;;;;19.03;100.00;98605.75;2638040;28;20082;-82
2022/06/28 03:28:34;;;;;;;1.83;1.60;;;;;;;19.10;100.00;98606.22;2637784;28;20054;-82
2022/06/28 03:29:51;;;;;;;2.00;1.60;;;;;;;19.13;100.00;98605.16;2637926;28;20451;-84
2022/06/28 03:31:06;;;;;;;4.43;1.80;;;;;;;19.18;100.00;98611.91;2638230;28;20044;-83
2022/06/28 03:32:22;;;;;;;4.32;1.63;;;;;;;19.09;100.00;98615.13;2638235;28;20409;-82
2022/06/28 03:33:38;;;;;;;3.85;1.70;;;;;;;19.02;100.00;98619.97;2637788;28;20043;-86
2022/06/28 03:34:53;;;;;;;3.28;1.58;;;;;;;19.02;100.00;98614.66;2637814;28;20457;-84
2022/06/28 03:36:09;;;;;;;3.60;1.60;;;;;;;18.88;100.00;98615.44;2637892;28;20493;-82
2022/06/28 03:37:25;;;;;;;1.98;1.75;;;;;;;18.88;100.00;98617.25;2637200;28;20055;-82
2022/06/28 03:38:41;;;;;;;3.95;1.70;;;;;;;18.91;100.00;98615.25;2637489;28;20040;-83
2022/06/28 03:39:56;;;;;;;3.60;1.42;;;;;;;18.97;100.00;98621.16;2637523;28;20043;-82
2022/06/28 03:41:22;;;;;;;2.60;1.60;;;;;;;18.91;100.00;98617.91;2637241;28;20048;-82
2022/06/28 03:42:37;;;;;;;2.53;1.52;;;;;;;18.88;100.00;98619.91;2637441;28;20047;-82
2022/06/28 03:43:53;;;;;;;5.22;1.58;;;;;;;18.81;100.00;98622.06;2637369;28;20074;-81
2022/06/28 03:45:09;;;;;;;4.05;1.50;;;;;;;18.74;100.00;98621.56;2637475;28;20047;-82
2022/06/28 03:46:25;;;;;;;4.03;1.80;;;;;;;18.82;100.00;98628.19;2637047;28;20486;-85
2022/06/28 03:47:40;;;;;;;3.58;1.55;;;;;;;18.77;100.00;98625.81;2637375;28;20044;-83
2022/06/28 03:48:56;;;;;;;2.97;1.63;;;;;;;18.80;100.00;98624.78;2637515;28;20508;-82
2022/06/28 03:50:12;;;;;;;3.88;1.83;;;;;;;18.83;100.00;98628.13;2638089;28;20048;-82
2022/06/28 03:51:27;;;;;;;3.63;1.70;;;;;;;18.80;100.00;98627.44;2637956;28;20113;-84
2022/06/28 03:52:43;;;;;;;1.77;1.55;;;;;;;18.84;100.00;98636.91;2636758;28;20040;-84
2022/06/28 03:53:59;;;;;;;3.35;1.90;;;;;;;18.88;100.00;98638.47;2637676;28;20055;-87
2022/06/28 03:55:14;;;;;;;3.70;1.70;;;;;;;18.95;100.00;98639.78;2637195;28;20051;-85
2022/06/28 03:56:30;;;;;;;2.55;1.80;;;;;;;18.90;100.00;98637.41;2637538;28;20051;-84
2022/06/28 03:57:45;;;;;;;4.63;1.67;;;;;;;18.93;100.00;98636.38;2637414;28;20116;-86
2022/06/28 03:59:01;;;;;;;8.18;1.60;;;;;;;18.97;100.00;98637.91;2637678;28;20083;-84
2022/06/28 04:00:17;;;;;;;3.33;1.55;;;;;;;18.94;100.00;98643.41;2637295;28;20058;-84
2022/06/28 04:01:33;;;;;;;2.28;1.70;;;;;;;18.92;100.00;98637.34;2636369;28;20127;-84
2022/06/28 04:02:48;;;;;;;3.38;1.63;;;;;;;18.94;100.00;98639.91;2636867;28;20082;-84
2022/06/28 04:04:04;;;;;;;4.20;2.13;;;;;;;18.87;100.00;98642.06;2636694;28;20092;-88
2022/06/28 04:05:20;;;;;;;2.97;1.80;;;;;;;18.84;100.00;98647.53;2637677;28;20105;-86
2022/06/28 04:06:35;;;;;;;3.80;1.80;;;;;;;18.82;100.00;98645.00;2637837;28;20104;-84
2022/06/28 04:07:51;;;;;;;2.60;1.50;;;;;;;18.86;100.00;98651.81;2637140;28;20394;-82
2022/06/28 04:09:06;;;;;;;2.17;1.60;;;;;;;18.92;100.00;98654.09;2637440;28;20390;-85
2022/06/28 04:10:22;;;;;;;2.33;1.60;;;;;;;18.96;100.00;98654.78;2637444;28;20390;-83
2022/06/28 04:11:37;;;;;;;3.15;1.85;;;;;;;18.96;100.00;98659.25;2637475;28;20044;-83
2022/06/28 04:12:53;;;;;;;2.50;1.42;;;;;;;18.99;100.00;98657.25;2637786;28;20071;-82
2022/06/28 04:14:13;;;;;;;3.20;1.67;;;;;;;19.07;100.00;98659.50;2637064;28;20047;-82
2022/06/28 04:15:29;;;;;;;3.05;1.48;;;;;;;19.01;100.00;98659.84;2637720;28;20336;-86
2022/06/28 04:16:44;;;;;;;4.03;1.80;;;;;;;19.13;100.00;98658.25;2637723;28;20090;-83
2022/06/28 04:18:00;;;;;;;2.45;1.55;;;;;;;19.20;100.00;98665.75;2636875;28;20504;-82
2022/06/28 04:19:16;;;;;;;2.08;1.60;;;;;;;19.18;100.00;98664.16;2636968;28;20448;-82
2022/06/28 04:20:33;;;;;;;5.70;1.60;;;;;;;19.17;100.00;98671.25;2637519;28;20040;-83
2022/06/28 04:21:49;;;;;;;2.90;1.70;;;;;;;19.13;100.00;98671.50;2637128;28;20047;-82
2022/06/28 04:23:04;;;;;;;3.38;1.73;;;;;;;19.17;100.00;98673.06;2637111;28;20047;-86
2022/06/28 04:24:20;;;;;;;3.90;1.50;;;;;;;19.18;100.00;98677.41;2637457;28;20048;-79
2022/06/28 04:25:36;;;;;;;3.42;1.85;;;;;;;19.16;100.00;98679.31;2637350;28;20126;-81
2022/06/28 04:26:51;;;;;;;4.57;1.90;;;;;;;19.24;100.00;98692.97;2637270;28;20039;-80
2022/06/28 04:28:07;;;;;;;13.85;2.25;;;;;;;19.18;100.00;98682.72;2637309;28;20051;-81
2022/06/28 04:29:22;;;;;;;5.45;1.98;;;;;;;19.22;100.00;98686.06;2636834;28;20085;-80
2022/06/28 04:30:38;;;;;;;3.22;1.58;;;;;;;19.23;100.00;98695.72;2637604;28;20161;-86
2022/06/28 04:31:54;;;;;;;7.05;2.00;;;;;;;19.23;100.00;98690.41;2637300;28;20051;-83
2022/06/28 04:33:09;;;;;;;3.22;1.63;;;;;;;19.23;100.00;98695.72;2637266;28;20413;-82
2022/06/28 04:34:25;;;;;;;2.05;1.70;;;;;;;19.20;100.00;98694.09;2636283;28;20214;-86
2022/06/28 04:35:40;;;;;;;2.42;1.90;;;;;;;19.22;100.00;98694.84;2637516;28;20532;-85
2022/06/28 04:36:56;;;;;;;5.72;1.70;;;;;;;19.23;100.00;98696.56;2636897;28;20118;-87
2022/06/28 04:38:11;;;;;;;3.55;1.80;;;;;;;19.24;100.00;98700.09;2637066;28;20498;-82
2022/06/28 04:39:27;;;;;;;5.22;2.03;;;;;;;19.26;100.00;98706.16;2637246;28;20565;-84
2022/06/28 04:40:43;;;;;;;5.00;2.00;;;;;;;19.26;100.00;98701.69;2637478;28;20096;-85
2022/06/28 04:42:00;;;;;;;5.10;2.20;;;;;;;19.27;100.00;98703.38;2637309;28;20079;-83
2022/06/28 04:43:15;;;;;;;4.45;2.05;;;;;;;19.31;100.00;98698.75;2637117;28;20493;-86
2022/06/28 04:44:31;;;;;;;2.63;1.90;;;;;;;19.37;100.00;98709.03;2632612;28;20112;-85
2022/06/28 04:45:47;;;;;;;3.95;2.20;;;;;;;19.44;100.00;98710.34;2637118;28;20511;-83
2022/06/28 04:47:03;;;;;;;3.13;2.08;;;;;;;19.50;100.00;98710.94;2636786;28;20061;-84
2022/06/28 04:48:18;;;;;;;2.97;2.30;;;;;;;19.38;100.00;98707.22;2636874;28;20048;-83
2022/06/28 04:49:34;;;;;;;5.65;2.50;;;;;;;19.41;100.00;98701.72;2637043;28;20456;-84
2022/06/28 04:50:50;;;;;;;3.00;2.40;;;;;;;19.56;100.00;98699.94;2636881;28;20501;-86
2022/06/28 04:52:06;;;;;;;2.90;2.38;;;;;;;19.60;100.00;98699.66;2636836;28;20605;-86
2022/06/28 04:53:21;;;;;;;3.53;2.35;;;;;;;19.68;100.00;98696.53;2638214;28;20467;-84
2022/06/28 04:54:37;;;;;;;4.78;2.65;;;;;;;19.72;100.00;98699.84;2639095;28;20047;-83
2022/06/28 04:55:53;;;;;;;3.83;2.72;;;;;;;19.73;100.00;98697.09;2639315;28;20046;-84
2022/06/28 04:57:08;;;;;;;4.30;2.70;;;;;;;19.75;100.00;98694.34;2639463;28;20055;-86
2022/06/28 04:58:24;;;;;;;4.93;2.63;;;;;;;19.69;100.00;98698.25;2639230;28;20054;-84
2022/06/28 04:59:39;;;;;;;3.30;2.85;;;;;;;19.67;100.00;98696.63;2639545;28;20055;-84
2022/06/28 05:00:55;;;;;;;4.50;2.53;;;;;;;19.76;100.00;98699.53;2639269;28;20053;-84
2022/06/28 05:02:10;;;;;;;3.58;2.78;;;;;;;19.78;100.00;98693.31;2639683;28;20051;-86
2022/06/28 05:03:26;;;;;;;4.30;3.05;;;;;;;19.81;100.00;98699.28;2639548;28;20070;-85
2022/06/28 05:04:42;;;;;;;3.58;3.28;;;;;;;19.86;100.00;98702.50;2639065;28;20050;-85
2022/06/28 05:05:58;;;;;;;5.75;3.03;;;;;;;19.89;100.00;98701.44;2638992;28;20047;-83
2022/06/28 05:07:13;;;;;;;5.70;3.03;;;;;;;19.89;100.00;98709.41;2638962;28;20039;-84
2022/06/28 05:08:29;;;;;;;3.58;3.28;;;;;;;19.91;100.00;98710.19;2637904;28;20122;-85
2022/06/28 05:09:45;;;;;;;3.88;3.10;;;;;;;19.99;100.00;98709.75;2638846;28;20043;-84
2022/06/28 05:11:01;;;;;;;4.15;3.50;;;;;;;19.94;100.00;98719.78;2627554;28;20604;-87
2022/06/28 05:12:17;;;;;;;6.65;3.60;;;;;;;20.06;100.00;98710.22;2632154;28;20976;-87
2022/06/28 05:13:32;;;;;;;6.63;4.00;;;;;;;20.03;100.00;98714.75;2638936;28;20047;-87
2022/06/28 05:14:48;;;;;;;6.03;3.80;;;;;;;20.09;100.00;98710.84;2639231;28;20047;-84
2022/06/28 05:16:04;;;;;;;6.10;3.58;;;;;;;20.00;100.00;98714.94;2639092;28;20049;-84
2022/06/28 05:17:19;;;;;;;6.07;4.00;;;;;;;20.08;100.00;98714.47;2638986;28;20071;-84
2022/06/28 05:18:35;;;;;;;7.78;4.15;;;;;;;20.13;100.00;98716.84;2639271;28;20485;-82
2022/06/28 05:19:52;;;;;;;8.02;4.38;;;;;;;20.05;100.00;98712.00;2637637;28;20047;-84
2022/06/28 05:21:07;;;;;;;5.32;4.35;;;;;;;20.07;100.00;98707.44;2638821;28;20185;-85
2022/06/28 05:22:23;;;;;;;6.72;4.90;;;;;;;20.05;100.00;98717.31;2638893;28;20047;-84
2022/06/28 05:23:39;;;;;;;6.40;4.32;;;;;;;20.07;100.00;98707.44;2639093;28;20059;-83
2022/06/28 05:24:55;;;;;;;7.78;4.25;;;;;;;20.06;100.00;98712.88;2639138;28;20087;-83
2022/06/28 05:26:10;;;;;;;4.82;4.32;;;;;;;20.07;100.00;98710.09;2639170;28;20089;-89
2022/06/28 05:27:26;;;;;;;6.07;4.82;;;;;;;20.03;100.00;98720.06;2638899;28;20043;-85
2022/06/28 05:28:41;;;;;;;7.13;4.97;;;;;;;20.05;100.00;98722.63;2639190;28;20055;-84
2022/06/28 05:29:57;;;;;;;7.90;5.40;;;;;;;20.06;100.00;98720.84;2638773;28;20101;-83
2022/06/28 05:31:12;;;;;;;9.75;6.90;;;;;;;19.97;100.00;98728.44;2638875;28;20074;-86
2022/06/28 05:32:29;;;;;;;8.43;5.63;;;;;;;19.98;100.00;98719.50;2639139;28;20047;-84
2022/06/28 05:33:44;;;;;;;7.45;5.68;;;;;;;19.98;100.00;98726.66;2639055;28;20055;-83
2022/06/28 05:35:00;;;;;;;8.68;6.30;;;;;;;20.01;100.00;98731.75;2638709;28;20047;-83
2022/06/28 05:36:16;;;;;;;7.53;6.72;;;;;;;19.95;100.00;98726.81;2638816;28;20043;-83
2022/06/28 05:37:32;;;;;;;11.43;6.97;;;;;;;19.94;100.00;98727.78;2638466;28;20047;-83
2022/06/28 05:38:48;;;;;;;11.50;7.68;;;;;;;19.87;100.00;98733.44;2638942;28;20043;-84
2022/06/28 05:40:04;;;;;;;11.32;8.48;;;;;;;19.86;100.00;98733.53;2639013;28;20130;-83
2022/06/28 05:41:19;;;;;;;11.10;9.30;;;;;;;19.79;100.00;98730.41;2638980;28;20043;-83
2022/06/28 05:42:35;;;;;;;12.07;9.82;;;;;;;19.82;100.00;98732.00;2639156;28;20055;-83
2022/06/28 05:43:50;;;;;;;13.05;9.65;;;;;;;19.86;100.00;98731.75;2638768;28;20044;-84
2022/06/28 05:45:06;;;;;;;14.55;10.25;;;;;;;19.83;100.00;98736.38;2638054;28;20051;-86
2022/06/28 05:46:22;;;;;;;12.38;9.80;;;;;;;19.79;100.00;98741.03;2638382;28;20055;-81
2022/06/28 05:47:38;;;;;;;13.77;10.82;;;;;;;19.79;100.00;98743.69;2638592;28;20052;-82
2022/06/28 05:48:54;;;;;;;14.82;9.82;;;;;;;19.66;100.00;98734.75;2639033;28;20417;-82
2022/06/28 05:50:10;;;;;;;13.90;11.23;;;;;;;19.68;100.00;98738.16;2638960;28;20075;-82
2022/06/28 05:51:25;;;;;;;14.68;10.52;;;;;;;19.64;100.00;98747.28;2638738;28;20525;-82
2022/06/28 05:52:41;;;;;;;15.85;10.57;;;;;;;19.69;100.00;98742.53;2638329;28;20043;-82
2022/06/28 05:53:57;;;;;;;15.50;10.85;;;;;;;19.68;100.00;98743.47;2638671;28;20105;-83
2022/06/28 05:55:13;;;;;;;17.48;11.65;;;;;;;19.68;100.00;98747.00;2638790;28;20101;-83
2022/06/28 05:56:29;;;;;;;17.73;11.00;;;;;;;19.60;100.00;98747.47;2638739;28;20942;-84
2022/06/28 05:57:45;;;;;;;13.85;11.05;;;;;;;19.59;100.00;98756.38;2638719;28;20085;-83
2022/06/28 05:59:00;;;;;;;17.20;11.60;;;;;;;19.45;100.00;98749.22;2638773;28;20051;-83
2022/06/28 06:00:17;;;;;;;14.15;11.70;;;;;;;19.49;100.00;98749.91;2638658;28;20176;-86